sensor_id;sensor_type;location;lat;lon;timestamp;P1;durP1;ratioP1;P2;durP2;ratioP2
23068;SDS011;11702;50.856;4.348;2023-03-25T00:00:59;5.50;;;1.77;;
23068;SDS011;11702;50.856;4.348;2023-03-25T00:03:26;8.00;;;1.73;;
23068;SDS011;11702;50.856;4.348;2023-03-25T00:05:54;5.85;;;1.75;;
23068;SDS011;11702;50.856;4.348;2023-03-25T00:08:23;6.97;;;2.55;;
23068;SDS011;11702;50.856;4.348;2023-03-25T00:10:57;5.97;;;1.63;;
23068;SDS011;11702;50.856;4.348;2023-03-25T00:13:24;5.32;;;1.33;;
23068;SDS011;11702;50.856;4.348;2023-03-25T00:15:50;5.30;;;1.50;;
23068;SDS011;11702;50.856;4.348;2023-03-25T00:18:22;3.35;;;1.40;;
23068;SDS011;11702;50.856;4.348;2023-03-25T00:20:49;2.28;;;1.23;;
23068;SDS011;11702;50.856;4.348;2023-03-25T00:23:18;6.72;;;1.38;;
23068;SDS011;11702;50.856;4.348;2023-03-25T00:25:45;5.68;;;1.67;;
23068;SDS011;11702;50.856;4.348;2023-03-25T00:28:11;5.07;;;1.83;;
23068;SDS011;11702;50.856;4.348;2023-03-25T00:30:38;8.00;;;1.60;;
23068;SDS011;11702;50.856;4.348;2023-03-25T00:33:06;18.60;;;2.47;;
23068;SDS011;11702;50.856;4.348;2023-03-25T00:35:36;4.65;;;1.70;;
23068;SDS011;11702;50.856;4.348;2023-03-25T00:38:03;4.25;;;1.48;;
23068;SDS011;11702;50.856;4.348;2023-03-25T00:40:32;8.18;;;1.95;;
23068;SDS011;11702;50.856;4.348;2023-03-25T00:43:01;8.57;;;2.03;;
23068;SDS011;11702;50.856;4.348;2023-03-25T00:45:28;13.55;;;1.98;;
23068;SDS011;11702;50.856;4.348;2023-03-25T00:47:54;4.85;;;1.63;;
23068;SDS011;11702;50.856;4.348;2023-03-25T00:50:20;5.40;;;1.35;;
23068;SDS011;11702;50.856;4.348;2023-03-25T00:52:46;6.18;;;1.67;;
23068;SDS011;11702;50.856;4.348;2023-03-25T00:55:12;7.47;;;1.40;;
23068;SDS011;11702;50.856;4.348;2023-03-25T00:57:38;7.07;;;1.70;;
23068;SDS011;11702;50.856;4.348;2023-03-25T01:00:04;7.15;;;1.55;;
23068;SDS011;11702;50.856;4.348;2023-03-25T01:02:33;8.90;;;2.03;;
23068;SDS011;11702;50.856;4.348;2023-03-25T01:05:02;4.63;;;1.73;;
23068;SDS011;11702;50.856;4.348;2023-03-25T01:07:29;6.70;;;1.70;;
23068;SDS011;11702;50.856;4.348;2023-03-25T01:09:56;5.95;;;1.80;;
23068;SDS011;11702;50.856;4.348;2023-03-25T01:12:23;6.93;;;1.90;;
23068;SDS011;11702;50.856;4.348;2023-03-25T01:14:49;5.78;;;2.22;;
23068;SDS011;11702;50.856;4.348;2023-03-25T01:17:15;6.32;;;1.70;;
23068;SDS011;11702;50.856;4.348;2023-03-25T01:19:41;9.02;;;1.98;;
23068;SDS011;11702;50.856;4.348;2023-03-25T01:22:07;7.50;;;2.25;;
23068;SDS011;11702;50.856;4.348;2023-03-25T01:24:33;5.72;;;1.88;;
23068;SDS011;11702;50.856;4.348;2023-03-25T01:27:01;10.93;;;2.05;;
23068;SDS011;11702;50.856;4.348;2023-03-25T01:29:27;14.95;;;1.70;;
23068;SDS011;11702;50.856;4.348;2023-03-25T01:31:52;5.25;;;1.90;;
23068;SDS011;11702;50.856;4.348;2023-03-25T01:34:18;5.15;;;1.63;;
23068;SDS011;11702;50.856;4.348;2023-03-25T01:36:44;8.15;;;2.03;;
23068;SDS011;11702;50.856;4.348;2023-03-25T01:39:13;6.07;;;1.70;;
23068;SDS011;11702;50.856;4.348;2023-03-25T01:41:41;11.50;;;2.17;;
23068;SDS011;11702;50.856;4.348;2023-03-25T01:46:43;7.93;;;1.70;;
23068;SDS011;11702;50.856;4.348;2023-03-25T01:49:13;5.97;;;1.90;;
23068;SDS011;11702;50.856;4.348;2023-03-25T01:51:48;8.05;;;1.67;;
23068;SDS011;11702;50.856;4.348;2023-03-25T01:54:17;6.75;;;1.70;;
23068;SDS011;11702;50.856;4.348;2023-03-25T01:56:46;5.60;;;1.73;;
23068;SDS011;11702;50.856;4.348;2023-03-25T01:59:14;8.05;;;1.80;;
23068;SDS011;11702;50.856;4.348;2023-03-25T02:01:42;5.25;;;1.80;;
23068;SDS011;11702;50.856;4.348;2023-03-25T02:04:12;8.77;;;1.98;;
23068;SDS011;11702;50.856;4.348;2023-03-25T02:06:50;4.53;;;1.70;;
23068;SDS011;11702;50.856;4.348;2023-03-25T02:09:18;6.75;;;1.80;;
23068;SDS011;11702;50.856;4.348;2023-03-25T02:11:48;5.70;;;1.90;;
23068;SDS011;11702;50.856;4.348;2023-03-25T02:14:16;9.18;;;2.17;;
23068;SDS011;11702;50.856;4.348;2023-03-25T02:20:07;8.23;;;1.48;;
23068;SDS011;11702;50.856;4.348;2023-03-25T02:40:07;5.90;;;1.70;;
23068;SDS011;11702;50.856;4.348;2023-03-25T02:45:56;8.88;;;1.67;;
23068;SDS011;11702;50.856;4.348;2023-03-25T02:48:05;8.13;;;1.80;;
23068;SDS011;11702;50.856;4.348;2023-03-25T02:50:37;4.53;;;1.60;;
23068;SDS011;11702;50.856;4.348;2023-03-25T02:53:12;8.82;;;1.70;;
23068;SDS011;11702;50.856;4.348;2023-03-25T02:55:44;10.90;;;2.20;;
23068;SDS011;11702;50.856;4.348;2023-03-25T02:58:12;8.35;;;1.90;;
23068;SDS011;11702;50.856;4.348;2023-03-25T03:00:42;10.75;;;1.67;;
23068;SDS011;11702;50.856;4.348;2023-03-25T03:03:08;10.32;;;1.85;;
23068;SDS011;11702;50.856;4.348;2023-03-25T03:05:37;13.48;;;1.95;;
23068;SDS011;11702;50.856;4.348;2023-03-25T03:11:29;11.95;;;2.40;;
23068;SDS011;11702;50.856;4.348;2023-03-25T03:14:27;14.13;;;1.92;;
23068;SDS011;11702;50.856;4.348;2023-03-25T03:20:19;6.65;;;1.88;;
23068;SDS011;11702;50.856;4.348;2023-03-25T03:23:14;5.80;;;1.50;;
23068;SDS011;11702;50.856;4.348;2023-03-25T03:26:03;9.95;;;1.75;;
23068;SDS011;11702;50.856;4.348;2023-03-25T03:31:58;15.43;;;2.17;;
23068;SDS011;11702;50.856;4.348;2023-03-25T03:34:42;9.45;;;2.00;;
23068;SDS011;11702;50.856;4.348;2023-03-25T03:37:23;12.85;;;2.22;;
23068;SDS011;11702;50.856;4.348;2023-03-25T03:39:55;8.07;;;1.85;;
23068;SDS011;11702;50.856;4.348;2023-03-25T03:48:23;12.02;;;2.53;;
23068;SDS011;11702;50.856;4.348;2023-03-25T03:50:59;9.98;;;2.47;;
23068;SDS011;11702;50.856;4.348;2023-03-25T03:53:41;8.35;;;2.30;;
23068;SDS011;11702;50.856;4.348;2023-03-25T03:56:14;8.32;;;1.90;;
23068;SDS011;11702;50.856;4.348;2023-03-25T03:58:53;12.17;;;2.53;;
23068;SDS011;11702;50.856;4.348;2023-03-25T04:04:19;12.45;;;2.38;;
23068;SDS011;11702;50.856;4.348;2023-03-25T04:07:02;16.37;;;3.40;;
23068;SDS011;11702;50.856;4.348;2023-03-25T04:09:38;14.73;;;2.47;;
23068;SDS011;11702;50.856;4.348;2023-03-25T04:12:28;14.77;;;2.53;;
23068;SDS011;11702;50.856;4.348;2023-03-25T04:15:00;20.98;;;2.45;;
23068;SDS011;11702;50.856;4.348;2023-03-25T04:19:56;9.98;;;2.75;;
23068;SDS011;11702;50.856;4.348;2023-03-25T04:22:23;14.60;;;2.20;;
23068;SDS011;11702;50.856;4.348;2023-03-25T04:24:54;14.18;;;2.70;;
23068;SDS011;11702;50.856;4.348;2023-03-25T04:27:25;12.90;;;2.33;;
23068;SDS011;11702;50.856;4.348;2023-03-25T04:29:54;11.90;;;2.42;;
23068;SDS011;11702;50.856;4.348;2023-03-25T04:32:21;12.55;;;2.47;;
23068;SDS011;11702;50.856;4.348;2023-03-25T04:34:53;16.08;;;3.53;;
23068;SDS011;11702;50.856;4.348;2023-03-25T04:37:23;10.65;;;2.05;;
23068;SDS011;11702;50.856;4.348;2023-03-25T04:39:55;12.23;;;2.53;;
23068;SDS011;11702;50.856;4.348;2023-03-25T04:42:27;12.10;;;2.90;;
23068;SDS011;11702;50.856;4.348;2023-03-25T04:45:04;13.57;;;3.17;;
23068;SDS011;11702;50.856;4.348;2023-03-25T04:47:47;9.25;;;2.55;;
23068;SDS011;11702;50.856;4.348;2023-03-25T04:50:18;10.65;;;2.72;;
23068;SDS011;11702;50.856;4.348;2023-03-25T04:52:54;11.25;;;2.25;;
23068;SDS011;11702;50.856;4.348;2023-03-25T04:55:26;16.27;;;2.95;;
23068;SDS011;11702;50.856;4.348;2023-03-25T04:57:53;11.00;;;2.35;;
23068;SDS011;11702;50.856;4.348;2023-03-25T05:00:20;9.60;;;2.30;;
23068;SDS011;11702;50.856;4.348;2023-03-25T05:02:49;10.38;;;1.92;;
23068;SDS011;11702;50.856;4.348;2023-03-25T05:05:23;10.15;;;2.95;;
23068;SDS011;11702;50.856;4.348;2023-03-25T05:07:54;12.82;;;2.65;;
23068;SDS011;11702;50.856;4.348;2023-03-25T05:10:22;9.07;;;2.10;;
23068;SDS011;11702;50.856;4.348;2023-03-25T05:12:56;8.35;;;1.95;;
23068;SDS011;11702;50.856;4.348;2023-03-25T05:18:07;9.48;;;1.83;;
23068;SDS011;11702;50.856;4.348;2023-03-25T05:20:50;10.90;;;2.00;;
23068;SDS011;11702;50.856;4.348;2023-03-25T05:23:19;12.57;;;2.30;;
23068;SDS011;11702;50.856;4.348;2023-03-25T05:25:46;10.73;;;1.95;;
23068;SDS011;11702;50.856;4.348;2023-03-25T05:28:14;6.63;;;2.55;;
23068;SDS011;11702;50.856;4.348;2023-03-25T05:30:41;5.38;;;1.83;;
23068;SDS011;11702;50.856;4.348;2023-03-25T05:33:16;13.23;;;2.20;;
23068;SDS011;11702;50.856;4.348;2023-03-25T05:35:43;9.98;;;3.03;;
23068;SDS011;11702;50.856;4.348;2023-03-25T05:38:10;12.88;;;2.40;;
23068;SDS011;11702;50.856;4.348;2023-03-25T05:40:36;12.18;;;2.10;;
23068;SDS011;11702;50.856;4.348;2023-03-25T05:43:04;13.25;;;2.40;;
23068;SDS011;11702;50.856;4.348;2023-03-25T05:45:31;10.98;;;2.40;;
23068;SDS011;11702;50.856;4.348;2023-03-25T05:48:00;8.00;;;2.40;;
23068;SDS011;11702;50.856;4.348;2023-03-25T05:50:29;14.32;;;2.30;;
23068;SDS011;11702;50.856;4.348;2023-03-25T05:52:55;16.65;;;2.65;;
23068;SDS011;11702;50.856;4.348;2023-03-25T05:55:23;9.63;;;2.70;;
23068;SDS011;11702;50.856;4.348;2023-03-25T05:57:49;8.68;;;2.08;;
23068;SDS011;11702;50.856;4.348;2023-03-25T06:00:16;14.63;;;2.45;;
23068;SDS011;11702;50.856;4.348;2023-03-25T06:02:44;13.95;;;2.45;;
23068;SDS011;11702;50.856;4.348;2023-03-25T06:05:12;10.02;;;2.42;;
23068;SDS011;11702;50.856;4.348;2023-03-25T06:07:41;12.30;;;2.15;;
23068;SDS011;11702;50.856;4.348;2023-03-25T06:10:10;17.45;;;2.97;;
23068;SDS011;11702;50.856;4.348;2023-03-25T06:12:40;16.15;;;2.95;;
23068;SDS011;11702;50.856;4.348;2023-03-25T06:15:08;13.43;;;2.75;;
23068;SDS011;11702;50.856;4.348;2023-03-25T06:17:35;12.68;;;2.10;;
23068;SDS011;11702;50.856;4.348;2023-03-25T06:20:03;11.90;;;2.47;;
23068;SDS011;11702;50.856;4.348;2023-03-25T06:22:42;13.55;;;2.28;;
23068;SDS011;11702;50.856;4.348;2023-03-25T06:25:10;11.82;;;2.78;;
23068;SDS011;11702;50.856;4.348;2023-03-25T06:27:41;14.02;;;2.72;;
23068;SDS011;11702;50.856;4.348;2023-03-25T06:30:11;13.18;;;3.20;;
23068;SDS011;11702;50.856;4.348;2023-03-25T06:35:04;9.65;;;1.90;;
23068;SDS011;11702;50.856;4.348;2023-03-25T06:37:32;9.35;;;1.77;;
23068;SDS011;11702;50.856;4.348;2023-03-25T06:39:58;14.50;;;3.67;;
23068;SDS011;11702;50.856;4.348;2023-03-25T06:42:27;8.25;;;2.38;;
23068;SDS011;11702;50.856;4.348;2023-03-25T06:44:54;12.45;;;2.20;;
23068;SDS011;11702;50.856;4.348;2023-03-25T06:47:20;13.88;;;2.80;;
23068;SDS011;11702;50.856;4.348;2023-03-25T06:49:46;9.88;;;2.05;;
23068;SDS011;11702;50.856;4.348;2023-03-25T06:52:12;16.30;;;2.60;;
23068;SDS011;11702;50.856;4.348;2023-03-25T06:54:38;16.30;;;2.60;;
23068;SDS011;11702;50.856;4.348;2023-03-25T06:57:04;10.40;;;2.67;;
23068;SDS011;11702;50.856;4.348;2023-03-25T06:59:33;11.00;;;2.63;;
23068;SDS011;11702;50.856;4.348;2023-03-25T07:02:03;9.30;;;3.17;;
23068;SDS011;11702;50.856;4.348;2023-03-25T07:04:29;14.35;;;2.47;;
23068;SDS011;11702;50.856;4.348;2023-03-25T07:06:55;12.52;;;2.28;;
23068;SDS011;11702;50.856;4.348;2023-03-25T07:09:21;11.35;;;2.17;;
23068;SDS011;11702;50.856;4.348;2023-03-25T07:11:46;13.48;;;2.50;;
23068;SDS011;11702;50.856;4.348;2023-03-25T07:14:15;9.57;;;2.35;;
23068;SDS011;11702;50.856;4.348;2023-03-25T07:16:43;14.98;;;2.65;;
23068;SDS011;11702;50.856;4.348;2023-03-25T07:19:08;17.05;;;3.15;;
23068;SDS011;11702;50.856;4.348;2023-03-25T07:21:34;15.35;;;2.75;;
23068;SDS011;11702;50.856;4.348;2023-03-25T07:24:00;10.32;;;2.22;;
23068;SDS011;11702;50.856;4.348;2023-03-25T07:26:31;16.23;;;2.88;;
23068;SDS011;11702;50.856;4.348;2023-03-25T07:28:57;16.70;;;2.95;;
23068;SDS011;11702;50.856;4.348;2023-03-25T07:31:24;8.85;;;2.50;;
23068;SDS011;11702;50.856;4.348;2023-03-25T07:33:50;13.77;;;2.75;;
23068;SDS011;11702;50.856;4.348;2023-03-25T07:36:17;15.25;;;3.25;;
23068;SDS011;11702;50.856;4.348;2023-03-25T07:38:45;13.82;;;3.17;;
23068;SDS011;11702;50.856;4.348;2023-03-25T07:41:13;14.18;;;3.22;;
23068;SDS011;11702;50.856;4.348;2023-03-25T07:43:39;12.52;;;3.10;;
23068;SDS011;11702;50.856;4.348;2023-03-25T07:46:07;12.23;;;2.47;;
23068;SDS011;11702;50.856;4.348;2023-03-25T07:48:32;12.32;;;2.85;;
23068;SDS011;11702;50.856;4.348;2023-03-25T07:50:58;14.35;;;2.88;;
23068;SDS011;11702;50.856;4.348;2023-03-25T07:53:23;18.40;;;2.70;;
23068;SDS011;11702;50.856;4.348;2023-03-25T07:55:49;21.92;;;3.80;;
23068;SDS011;11702;50.856;4.348;2023-03-25T07:58:15;12.68;;;2.75;;
23068;SDS011;11702;50.856;4.348;2023-03-25T08:00:42;16.05;;;3.10;;
23068;SDS011;11702;50.856;4.348;2023-03-25T08:03:11;15.95;;;2.75;;
23068;SDS011;11702;50.856;4.348;2023-03-25T08:05:43;11.48;;;2.50;;
23068;SDS011;11702;50.856;4.348;2023-03-25T08:08:11;16.35;;;3.15;;
23068;SDS011;11702;50.856;4.348;2023-03-25T08:10:39;22.25;;;3.03;;
23068;SDS011;11702;50.856;4.348;2023-03-25T08:13:11;16.50;;;2.60;;
23068;SDS011;11702;50.856;4.348;2023-03-25T08:15:37;24.63;;;3.42;;
23068;SDS011;11702;50.856;4.348;2023-03-25T08:18:06;19.00;;;3.67;;
23068;SDS011;11702;50.856;4.348;2023-03-25T08:20:33;12.68;;;3.03;;
23068;SDS011;11702;50.856;4.348;2023-03-25T08:22:59;10.93;;;2.70;;
23068;SDS011;11702;50.856;4.348;2023-03-25T08:25:24;22.73;;;4.15;;
23068;SDS011;11702;50.856;4.348;2023-03-25T08:27:52;20.55;;;3.13;;
23068;SDS011;11702;50.856;4.348;2023-03-25T08:30:17;18.23;;;3.95;;
23068;SDS011;11702;50.856;4.348;2023-03-25T08:32:43;14.52;;;3.33;;
23068;SDS011;11702;50.856;4.348;2023-03-25T08:35:18;12.25;;;3.28;;
23068;SDS011;11702;50.856;4.348;2023-03-25T08:37:44;17.05;;;3.00;;
23068;SDS011;11702;50.856;4.348;2023-03-25T08:40:10;19.13;;;3.33;;
23068;SDS011;11702;50.856;4.348;2023-03-25T08:42:36;16.13;;;3.67;;
23068;SDS011;11702;50.856;4.348;2023-03-25T08:45:03;18.95;;;3.33;;
23068;SDS011;11702;50.856;4.348;2023-03-25T08:47:30;13.82;;;3.35;;
23068;SDS011;11702;50.856;4.348;2023-03-25T08:49:56;19.70;;;3.70;;
23068;SDS011;11702;50.856;4.348;2023-03-25T08:52:21;19.98;;;3.13;;
23068;SDS011;11702;50.856;4.348;2023-03-25T08:54:49;15.60;;;3.42;;
23068;SDS011;11702;50.856;4.348;2023-03-25T08:57:15;16.17;;;3.88;;
23068;SDS011;11702;50.856;4.348;2023-03-25T08:59:41;15.07;;;3.08;;
23068;SDS011;11702;50.856;4.348;2023-03-25T09:02:08;18.45;;;3.72;;
23068;SDS011;11702;50.856;4.348;2023-03-25T09:04:35;12.48;;;3.25;;
23068;SDS011;11702;50.856;4.348;2023-03-25T09:07:02;12.93;;;3.38;;
23068;SDS011;11702;50.856;4.348;2023-03-25T09:09:29;16.45;;;3.25;;
23068;SDS011;11702;50.856;4.348;2023-03-25T09:11:55;16.58;;;3.33;;
23068;SDS011;11702;50.856;4.348;2023-03-25T09:14:20;22.00;;;4.40;;
23068;SDS011;11702;50.856;4.348;2023-03-25T09:16:46;19.45;;;3.85;;
23068;SDS011;11702;50.856;4.348;2023-03-25T09:19:11;14.65;;;3.45;;
23068;SDS011;11702;50.856;4.348;2023-03-25T09:21:37;15.85;;;3.88;;
23068;SDS011;11702;50.856;4.348;2023-03-25T09:24:03;22.52;;;4.25;;
23068;SDS011;11702;50.856;4.348;2023-03-25T09:26:28;25.48;;;5.28;;
23068;SDS011;11702;50.856;4.348;2023-03-25T09:28:54;21.15;;;3.58;;
23068;SDS011;11702;50.856;4.348;2023-03-25T09:31:20;23.23;;;4.20;;
23068;SDS011;11702;50.856;4.348;2023-03-25T09:33:48;19.90;;;3.65;;
23068;SDS011;11702;50.856;4.348;2023-03-25T09:36:14;17.75;;;3.05;;
23068;SDS011;11702;50.856;4.348;2023-03-25T09:38:39;22.77;;;3.55;;
23068;SDS011;11702;50.856;4.348;2023-03-25T09:41:22;21.33;;;4.53;;
23068;SDS011;11702;50.856;4.348;2023-03-25T09:44:25;19.42;;;3.80;;
23068;SDS011;11702;50.856;4.348;2023-03-25T09:47:12;21.85;;;3.80;;
23068;SDS011;11702;50.856;4.348;2023-03-25T09:49:40;18.05;;;3.28;;
23068;SDS011;11702;50.856;4.348;2023-03-25T09:52:17;13.40;;;3.47;;
23068;SDS011;11702;50.856;4.348;2023-03-25T09:54:58;17.60;;;3.67;;
23068;SDS011;11702;50.856;4.348;2023-03-25T09:57:29;19.33;;;3.40;;
23068;SDS011;11702;50.856;4.348;2023-03-25T09:59:58;17.77;;;3.35;;
23068;SDS011;11702;50.856;4.348;2023-03-25T10:02:42;24.40;;;3.88;;
23068;SDS011;11702;50.856;4.348;2023-03-25T10:11:02;17.45;;;3.63;;
23068;SDS011;11702;50.856;4.348;2023-03-25T10:22:03;19.88;;;3.88;;
23068;SDS011;11702;50.856;4.348;2023-03-25T10:24:41;15.88;;;3.97;;
23068;SDS011;11702;50.856;4.348;2023-03-25T10:27:37;25.55;;;4.40;;
23068;SDS011;11702;50.856;4.348;2023-03-25T10:32:45;19.85;;;3.50;;
23068;SDS011;11702;50.856;4.348;2023-03-25T10:35:19;27.42;;;4.63;;
23068;SDS011;11702;50.856;4.348;2023-03-25T10:38:02;17.38;;;3.85;;
23068;SDS011;11702;50.856;4.348;2023-03-25T10:40:47;22.33;;;4.27;;
23068;SDS011;11702;50.856;4.348;2023-03-25T10:43:33;20.40;;;3.45;;
23068;SDS011;11702;50.856;4.348;2023-03-25T10:48:46;18.88;;;3.20;;
23068;SDS011;11702;50.856;4.348;2023-03-25T10:51:18;15.05;;;4.40;;
23068;SDS011;11702;50.856;4.348;2023-03-25T10:53:49;15.60;;;3.65;;
23068;SDS011;11702;50.856;4.348;2023-03-25T11:01:50;14.65;;;3.80;;
23068;SDS011;11702;50.856;4.348;2023-03-25T11:04:19;15.27;;;4.07;;
23068;SDS011;11702;50.856;4.348;2023-03-25T11:07:21;13.95;;;3.72;;
23068;SDS011;11702;50.856;4.348;2023-03-25T11:10:07;17.13;;;3.50;;
23068;SDS011;11702;50.856;4.348;2023-03-25T11:12:58;14.18;;;2.97;;
23068;SDS011;11702;50.856;4.348;2023-03-25T11:15:33;15.38;;;3.35;;
23068;SDS011;11702;50.856;4.348;2023-03-25T11:18:28;21.25;;;3.45;;
23068;SDS011;11702;50.856;4.348;2023-03-25T11:21:00;17.58;;;3.72;;
23068;SDS011;11702;50.856;4.348;2023-03-25T11:23:36;15.38;;;3.60;;
23068;SDS011;11702;50.856;4.348;2023-03-25T11:26:17;13.50;;;3.35;;
23068;SDS011;11702;50.856;4.348;2023-03-25T11:29:00;19.70;;;3.47;;
23068;SDS011;11702;50.856;4.348;2023-03-25T11:31:37;16.42;;;3.67;;
23068;SDS011;11702;50.856;4.348;2023-03-25T11:36:46;16.83;;;4.00;;
23068;SDS011;11702;50.856;4.348;2023-03-25T11:39:28;12.35;;;2.63;;
23068;SDS011;11702;50.856;4.348;2023-03-25T11:41:58;11.93;;;2.70;;
23068;SDS011;11702;50.856;4.348;2023-03-25T11:44:32;15.45;;;2.63;;
23068;SDS011;11702;50.856;4.348;2023-03-25T11:47:07;13.68;;;3.55;;
23068;SDS011;11702;50.856;4.348;2023-03-25T11:49:46;14.77;;;2.97;;
23068;SDS011;11702;50.856;4.348;2023-03-25T11:52:21;18.42;;;2.97;;
23068;SDS011;11702;50.856;4.348;2023-03-25T11:55:04;12.30;;;2.63;;
23068;SDS011;11702;50.856;4.348;2023-03-25T11:57:46;18.27;;;2.83;;
23068;SDS011;11702;50.856;4.348;2023-03-25T12:00:21;18.20;;;3.35;;
23068;SDS011;11702;50.856;4.348;2023-03-25T12:03:15;12.55;;;2.55;;
23068;SDS011;11702;50.856;4.348;2023-03-25T12:08:55;16.38;;;3.53;;
23068;SDS011;11702;50.856;4.348;2023-03-25T12:11:35;12.52;;;2.80;;
23068;SDS011;11702;50.856;4.348;2023-03-25T12:14:45;14.45;;;2.88;;
23068;SDS011;11702;50.856;4.348;2023-03-25T12:21:09;24.42;;;4.65;;
23068;SDS011;11702;50.856;4.348;2023-03-25T12:36:08;15.48;;;3.10;;
23068;SDS011;11702;50.856;4.348;2023-03-25T12:38:56;15.23;;;2.75;;
23068;SDS011;11702;50.856;4.348;2023-03-25T12:44:34;13.63;;;2.80;;
23068;SDS011;11702;50.856;4.348;2023-03-25T12:47:23;16.10;;;3.17;;
23068;SDS011;11702;50.856;4.348;2023-03-25T12:50:22;13.00;;;3.03;;
23068;SDS011;11702;50.856;4.348;2023-03-25T12:53:26;16.98;;;3.70;;
23068;SDS011;11702;50.856;4.348;2023-03-25T13:05:26;22.02;;;3.67;;
23068;SDS011;11702;50.856;4.348;2023-03-25T13:11:56;18.55;;;3.97;;
23068;SDS011;11702;50.856;4.348;2023-03-25T13:21:10;19.70;;;3.75;;
23068;SDS011;11702;50.856;4.348;2023-03-25T13:27:10;13.32;;;3.38;;
23068;SDS011;11702;50.856;4.348;2023-03-25T13:29:45;17.35;;;3.97;;
23068;SDS011;11702;50.856;4.348;2023-03-25T13:32:28;16.13;;;3.45;;
23068;SDS011;11702;50.856;4.348;2023-03-25T13:35:33;17.50;;;4.47;;
23068;SDS011;11702;50.856;4.348;2023-03-25T13:38:45;15.35;;;3.10;;
23068;SDS011;11702;50.856;4.348;2023-03-25T13:41:46;17.63;;;3.08;;
23068;SDS011;11702;50.856;4.348;2023-03-25T13:47:19;14.75;;;3.15;;
23068;SDS011;11702;50.856;4.348;2023-03-25T13:50:17;15.80;;;2.70;;
23068;SDS011;11702;50.856;4.348;2023-03-25T13:52:50;15.98;;;2.65;;
23068;SDS011;11702;50.856;4.348;2023-03-25T13:55:37;17.10;;;2.95;;
23068;SDS011;11702;50.856;4.348;2023-03-25T14:04:19;11.95;;;3.53;;
23068;SDS011;11702;50.856;4.348;2023-03-25T14:07:27;13.10;;;2.85;;
23068;SDS011;11702;50.856;4.348;2023-03-25T14:12:55;19.90;;;2.75;;
23068;SDS011;11702;50.856;4.348;2023-03-25T14:15:34;11.57;;;2.50;;
23068;SDS011;11702;50.856;4.348;2023-03-25T14:18:02;10.70;;;2.88;;
23068;SDS011;11702;50.856;4.348;2023-03-25T14:20:33;9.73;;;2.58;;
23068;SDS011;11702;50.856;4.348;2023-03-25T14:23:05;9.57;;;2.70;;
23068;SDS011;11702;50.856;4.348;2023-03-25T14:28:01;13.88;;;2.75;;
23068;SDS011;11702;50.856;4.348;2023-03-25T14:30:27;12.55;;;3.08;;
23068;SDS011;11702;50.856;4.348;2023-03-25T14:32:55;11.23;;;2.38;;
23068;SDS011;11702;50.856;4.348;2023-03-25T14:46:00;12.60;;;2.55;;
23068;SDS011;11702;50.856;4.348;2023-03-25T14:48:34;15.45;;;3.10;;
23068;SDS011;11702;50.856;4.348;2023-03-25T14:51:06;8.75;;;2.22;;
23068;SDS011;11702;50.856;4.348;2023-03-25T14:56:37;15.20;;;2.88;;
23068;SDS011;11702;50.856;4.348;2023-03-25T14:59:14;15.57;;;2.95;;
23068;SDS011;11702;50.856;4.348;2023-03-25T15:01:44;11.10;;;2.35;;
23068;SDS011;11702;50.856;4.348;2023-03-25T15:04:15;10.95;;;2.78;;
23068;SDS011;11702;50.856;4.348;2023-03-25T15:06:46;16.40;;;2.72;;
23068;SDS011;11702;50.856;4.348;2023-03-25T15:09:13;8.80;;;2.15;;
23068;SDS011;11702;50.856;4.348;2023-03-25T15:11:43;10.05;;;2.28;;
23068;SDS011;11702;50.856;4.348;2023-03-25T15:14:21;11.75;;;2.38;;
23068;SDS011;11702;50.856;4.348;2023-03-25T15:17:02;10.48;;;2.08;;
23068;SDS011;11702;50.856;4.348;2023-03-25T15:20:11;14.05;;;2.85;;
23068;SDS011;11702;50.856;4.348;2023-03-25T15:22:33;11.57;;;3.00;;
23068;SDS011;11702;50.856;4.348;2023-03-25T15:24:59;10.88;;;3.05;;
23068;SDS011;11702;50.856;4.348;2023-03-25T15:27:32;14.02;;;3.10;;
23068;SDS011;11702;50.856;4.348;2023-03-25T15:46:51;15.10;;;2.80;;
23068;SDS011;11702;50.856;4.348;2023-03-25T15:52:52;13.25;;;2.80;;
23068;SDS011;11702;50.856;4.348;2023-03-25T15:55:48;12.80;;;3.42;;
23068;SDS011;11702;50.856;4.348;2023-03-25T15:58:23;15.70;;;3.45;;
23068;SDS011;11702;50.856;4.348;2023-03-25T16:00:55;15.55;;;3.05;;
23068;SDS011;11702;50.856;4.348;2023-03-25T16:03:27;15.88;;;3.30;;
23068;SDS011;11702;50.856;4.348;2023-03-25T16:06:00;13.52;;;3.70;;
23068;SDS011;11702;50.856;4.348;2023-03-25T16:08:32;13.77;;;3.40;;
23068;SDS011;11702;50.856;4.348;2023-03-25T16:13:59;14.48;;;3.00;;
23068;SDS011;11702;50.856;4.348;2023-03-25T16:16:34;15.25;;;3.22;;
23068;SDS011;11702;50.856;4.348;2023-03-25T16:19:02;17.13;;;3.58;;
23068;SDS011;11702;50.856;4.348;2023-03-25T16:21:32;20.00;;;4.15;;
23068;SDS011;11702;50.856;4.348;2023-03-25T16:24:01;18.92;;;3.70;;
23068;SDS011;11702;50.856;4.348;2023-03-25T16:26:42;13.05;;;3.47;;
23068;SDS011;11702;50.856;4.348;2023-03-25T16:29:17;21.10;;;3.83;;
23068;SDS011;11702;50.856;4.348;2023-03-25T16:31:54;16.52;;;3.65;;
23068;SDS011;11702;50.856;4.348;2023-03-25T16:34:26;27.25;;;4.22;;
23068;SDS011;11702;50.856;4.348;2023-03-25T16:36:57;15.45;;;3.15;;
23068;SDS011;11702;50.856;4.348;2023-03-25T16:39:23;18.17;;;3.95;;
23068;SDS011;11702;50.856;4.348;2023-03-25T16:41:51;22.02;;;4.10;;
23068;SDS011;11702;50.856;4.348;2023-03-25T16:44:26;16.80;;;3.80;;
23068;SDS011;11702;50.856;4.348;2023-03-25T16:46:52;16.20;;;3.97;;
23068;SDS011;11702;50.856;4.348;2023-03-25T16:49:29;22.40;;;3.63;;
23068;SDS011;11702;50.856;4.348;2023-03-25T16:51:57;22.45;;;3.85;;
23068;SDS011;11702;50.856;4.348;2023-03-25T16:54:36;19.60;;;4.15;;
23068;SDS011;11702;50.856;4.348;2023-03-25T16:57:10;14.68;;;3.70;;
23068;SDS011;11702;50.856;4.348;2023-03-25T16:59:43;17.42;;;3.90;;
23068;SDS011;11702;50.856;4.348;2023-03-25T17:02:30;20.55;;;4.43;;
23068;SDS011;11702;50.856;4.348;2023-03-25T17:07:40;26.40;;;4.32;;
23068;SDS011;11702;50.856;4.348;2023-03-25T17:13:21;17.27;;;3.63;;
23068;SDS011;11702;50.856;4.348;2023-03-25T17:15:58;18.02;;;3.65;;
23068;SDS011;11702;50.856;4.348;2023-03-25T17:18:28;17.20;;;3.72;;
23068;SDS011;11702;50.856;4.348;2023-03-25T17:20:57;18.17;;;4.03;;
23068;SDS011;11702;50.856;4.348;2023-03-25T17:23:35;23.63;;;3.38;;
23068;SDS011;11702;50.856;4.348;2023-03-25T17:26:05;17.63;;;4.47;;
23068;SDS011;11702;50.856;4.348;2023-03-25T17:28:42;19.40;;;3.97;;
23068;SDS011;11702;50.856;4.348;2023-03-25T17:34:12;27.33;;;4.43;;
23068;SDS011;11702;50.856;4.348;2023-03-25T17:36:49;21.27;;;3.85;;
23068;SDS011;11702;50.856;4.348;2023-03-25T17:39:32;17.40;;;3.30;;
23068;SDS011;11702;50.856;4.348;2023-03-25T17:42:00;22.77;;;4.85;;
23068;SDS011;11702;50.856;4.348;2023-03-25T17:44:40;22.73;;;4.50;;
23068;SDS011;11702;50.856;4.348;2023-03-25T17:47:11;18.13;;;3.97;;
23068;SDS011;11702;50.856;4.348;2023-03-25T17:49:40;22.10;;;4.40;;
23068;SDS011;11702;50.856;4.348;2023-03-25T17:52:06;25.25;;;3.97;;
23068;SDS011;11702;50.856;4.348;2023-03-25T17:54:33;22.98;;;5.03;;
23068;SDS011;11702;50.856;4.348;2023-03-25T17:56:59;19.95;;;4.18;;
23068;SDS011;11702;50.856;4.348;2023-03-25T17:59:29;21.58;;;3.97;;
23068;SDS011;11702;50.856;4.348;2023-03-25T18:01:57;25.40;;;4.07;;
23068;SDS011;11702;50.856;4.348;2023-03-25T18:04:24;22.20;;;4.18;;
23068;SDS011;11702;50.856;4.348;2023-03-25T18:06:50;26.05;;;6.28;;
23068;SDS011;11702;50.856;4.348;2023-03-25T18:09:17;21.25;;;4.50;;
23068;SDS011;11702;50.856;4.348;2023-03-25T18:11:54;19.90;;;3.70;;
23068;SDS011;11702;50.856;4.348;2023-03-25T18:14:23;19.23;;;4.38;;